createdAt,value
2022-08-03T00:00:58.075Z,0
2022-08-03T00:02:14.246Z,0
2022-08-03T00:03:30.450Z,0
2022-08-03T00:04:46.641Z,0
2022-08-03T00:06:02.460Z,0
2022-08-03T00:07:19.014Z,0
2022-08-03T00:08:35.198Z,0
2022-08-03T00:09:51.382Z,0
2022-08-03T00:11:07.565Z,0
2022-08-03T00:12:23.389Z,0
2022-08-03T00:13:38.593Z,0
2022-08-03T00:14:55.140Z,0
2022-08-03T00:16:11.333Z,0
2022-08-03T00:17:27.519Z,0
2022-08-03T00:18:43.715Z,0
2022-08-03T00:19:59.904Z,0
2022-08-03T00:21:16.092Z,0
2022-08-03T00:22:32.281Z,0
2022-08-03T00:23:48.468Z,0
2022-08-03T00:25:04.657Z,0
2022-08-03T00:26:20.835Z,0
2022-08-03T00:27:37.027Z,0
2022-08-03T00:28:52.855Z,0
2022-08-03T00:30:08.414Z,0
2022-08-03T00:31:24.598Z,0
2022-08-03T00:32:40.787Z,0
2022-08-03T00:33:56.975Z,0
2022-08-03T00:35:13.156Z,0
2022-08-03T00:36:29.358Z,0
2022-08-03T00:37:44.200Z,0
2022-08-03T00:39:00.746Z,0
2022-08-03T00:40:16.926Z,0
2022-08-03T00:41:33.120Z,0
2022-08-03T00:42:49.305Z,0
2022-08-03T00:44:05.500Z,0
2022-08-03T00:45:21.679Z,0
2022-08-03T00:46:37.866Z,0
2022-08-03T00:47:54.047Z,0
2022-08-03T00:49:10.238Z,0
2022-08-03T00:50:26.438Z,0
2022-08-03T00:51:42.253Z,0
2022-08-03T00:52:58.797Z,0
2022-08-03T00:54:13.633Z,0
2022-08-03T00:55:30.192Z,0
2022-08-03T00:56:46.384Z,0
2022-08-03T00:58:02.576Z,0
2022-08-03T00:59:18.750Z,0
2022-08-03T01:00:34.955Z,0
2022-08-03T01:01:51.129Z,0
2022-08-03T01:03:06.960Z,0
2022-08-03T01:04:23.501Z,0
2022-08-03T01:05:39.697Z,0
2022-08-03T01:06:55.506Z,0
2022-08-03T01:08:12.062Z,0
2022-08-03T01:09:28.261Z,0
2022-08-03T01:10:43.097Z,0
2022-08-03T01:11:59.652Z,0
2022-08-03T01:13:15.829Z,0
2022-08-03T01:14:32.015Z,0
2022-08-03T01:15:47.847Z,0
2022-08-03T01:17:04.394Z,0
2022-08-03T01:18:20.578Z,0
2022-08-03T01:19:36.770Z,0
2022-08-03T01:20:52.598Z,0
2022-08-03T01:22:08.777Z,0
2022-08-03T01:23:25.326Z,0
2022-08-03T01:24:41.531Z,0
2022-08-03T01:25:57.712Z,0
2022-08-03T01:27:12.906Z,0
2022-08-03T01:28:28.721Z,0
2022-08-03T01:29:45.299Z,0
2022-08-03T01:31:01.485Z,0
2022-08-03T01:32:17.658Z,0
2022-08-03T01:33:33.861Z,0
2022-08-03T01:34:49.663Z,0
2022-08-03T01:36:06.234Z,0
2022-08-03T01:37:22.037Z,0
2022-08-03T01:38:38.597Z,0
2022-08-03T01:39:54.408Z,0
2022-08-03T01:41:10.976Z,0
2022-08-03T01:42:27.155Z,0
2022-08-03T01:43:42.363Z,0
2022-08-03T01:44:58.559Z,0
2022-08-03T01:46:14.739Z,0
2022-08-03T01:47:30.927Z,0
2022-08-03T01:48:47.114Z,0
2022-08-03T01:50:02.932Z,0
2022-08-03T01:51:19.492Z,0
2022-08-03T01:52:35.293Z,0
2022-08-03T01:53:51.489Z,0
2022-08-03T01:55:08.053Z,0
2022-08-03T01:56:24.251Z,0
2022-08-03T01:57:40.421Z,0
2022-08-03T01:58:56.607Z,0
2022-08-03T02:00:11.448Z,0
2022-08-03T02:01:28.008Z,0
2022-08-03T02:02:44.188Z,0
2022-08-03T02:04:00.377Z,0
2022-08-03T02:05:16.560Z,0
2022-08-03T02:06:32.367Z,0
2022-08-03T02:07:48.560Z,0
2022-08-03T02:09:05.123Z,0
2022-08-03T02:10:20.929Z,0
2022-08-03T02:11:37.495Z,0
2022-08-03T02:12:53.695Z,0
2022-08-03T02:14:09.888Z,0
2022-08-03T02:15:25.676Z,0
2022-08-03T02:16:42.255Z,0
2022-08-03T02:17:57.457Z,0
2022-08-03T02:19:13.651Z,0
2022-08-03T02:20:29.456Z,0
2022-08-03T02:21:46.027Z,0
2022-08-03T02:23:02.216Z,0
2022-08-03T02:24:18.386Z,0
2022-08-03T02:25:34.574Z,0
2022-08-03T02:26:50.763Z,0
2022-08-03T02:28:06.957Z,0
2022-08-03T02:29:23.142Z,0
2022-08-03T02:30:38.944Z,0
2022-08-03T02:31:55.131Z,0
2022-08-03T02:33:11.698Z,0
2022-08-03T02:34:26.920Z,0
2022-08-03T02:35:43.106Z,0
2022-08-03T02:36:59.292Z,0
2022-08-03T02:38:15.475Z,0
2022-08-03T02:39:31.660Z,0
2022-08-03T02:40:47.454Z,0
2022-08-03T02:42:04.043Z,0
2022-08-03T02:43:20.229Z,0
2022-08-03T02:44:36.013Z,0
2022-08-03T02:45:52.599Z,0
2022-08-03T02:47:08.776Z,0
2022-08-03T02:48:24.962Z,0
2022-08-03T02:49:41.164Z,0
2022-08-03T02:50:56.356Z,0
2022-08-03T02:52:12.548Z,0
2022-08-03T02:53:28.739Z,0
2022-08-03T02:54:44.930Z,0
2022-08-03T02:56:01.000Z,0
2022-08-03T02:57:16.907Z,0
2022-08-03T02:58:33.479Z,0
2022-08-03T02:59:49.678Z,0
2022-08-03T03:01:05.458Z,0
2022-08-03T03:02:22.053Z,0
2022-08-03T03:03:38.244Z,0
2022-08-03T03:04:54.430Z,4
2022-08-03T03:06:10.603Z,4
2022-08-03T03:07:25.420Z,4
2022-08-03T03:08:41.615Z,4
2022-08-03T03:09:57.797Z,4
2022-08-03T03:11:13.974Z,4
2022-08-03T03:12:30.563Z,8
2022-08-03T03:13:46.348Z,8
2022-08-03T03:15:02.947Z,12
2022-08-03T03:16:19.121Z,12
2022-08-03T03:17:35.318Z,12
2022-08-03T03:18:51.507Z,12
2022-08-03T03:20:07.683Z,16
2022-08-03T03:21:23.472Z,20
2022-08-03T03:22:39.661Z,24
2022-08-03T03:23:55.269Z,28
2022-08-03T03:25:11.447Z,32
2022-08-03T03:26:27.649Z,36
2022-08-03T03:27:43.832Z,40
2022-08-03T03:29:00.016Z,44
2022-08-03T03:30:16.197Z,52
2022-08-03T03:31:31.990Z,56
2022-08-03T03:32:48.583Z,60
2022-08-03T03:34:04.362Z,68
2022-08-03T03:35:20.546Z,72
2022-08-03T03:36:37.131Z,80
2022-08-03T03:37:53.329Z,88
2022-08-03T03:39:09.107Z,92
2022-08-03T03:40:24.721Z,100
2022-08-03T03:41:40.914Z,108
2022-08-03T03:42:57.102Z,112
2022-08-03T03:44:13.277Z,120
2022-08-03T03:45:29.069Z,128
2022-08-03T03:46:45.243Z,136
2022-08-03T03:48:01.439Z,144
2022-08-03T03:49:17.630Z,152
2022-08-03T03:50:34.226Z,164
2022-08-03T03:51:50.409Z,172
2022-08-03T03:53:06.582Z,180
2022-08-03T03:54:22.385Z,192
2022-08-03T03:55:38.551Z,204
2022-08-03T03:56:54.163Z,212
2022-08-03T03:58:10.358Z,224
2022-08-03T03:59:26.552Z,232
2022-08-03T04:00:42.316Z,244
2022-08-03T04:01:58.919Z,256
2022-08-03T04:03:15.112Z,264
2022-08-03T04:04:31.296Z,272
2022-08-03T04:05:47.473Z,284
2022-08-03T04:07:03.676Z,288
2022-08-03T04:08:19.847Z,304
2022-08-03T04:09:35.643Z,316
2022-08-03T04:10:52.221Z,332
2022-08-03T04:12:08.420Z,344
2022-08-03T04:13:23.206Z,360
2022-08-03T04:14:39.803Z,364
2022-08-03T04:15:55.995Z,380
2022-08-03T04:17:11.776Z,396
2022-08-03T04:18:28.375Z,404
2022-08-03T04:19:44.557Z,420
2022-08-03T04:21:00.739Z,448
2022-08-03T04:22:16.928Z,468
2022-08-03T04:23:33.129Z,472
2022-08-03T04:24:48.904Z,492
2022-08-03T04:26:05.495Z,516
2022-08-03T04:27:21.692Z,540
2022-08-03T04:28:37.868Z,556
2022-08-03T04:29:52.660Z,576
2022-08-03T04:31:09.259Z,596
2022-08-03T04:32:25.046Z,612
2022-08-03T04:33:41.634Z,632
2022-08-03T04:34:57.820Z,648
2022-08-03T04:36:14.005Z,660
2022-08-03T04:37:29.775Z,672
2022-08-03T04:38:46.388Z,668
2022-08-03T04:40:02.163Z,652
2022-08-03T04:41:18.767Z,644
2022-08-03T04:42:34.938Z,636
2022-08-03T04:43:50.725Z,628
2022-08-03T04:45:07.331Z,620
2022-08-03T04:46:22.111Z,616
2022-08-03T04:47:38.289Z,624
2022-08-03T04:48:54.892Z,628
2022-08-03T04:50:11.088Z,636
2022-08-03T04:51:27.283Z,640
2022-08-03T04:52:42.479Z,652
2022-08-03T04:53:58.675Z,664
2022-08-03T04:55:14.431Z,672
2022-08-03T04:56:30.635Z,680
2022-08-03T04:57:47.233Z,692
2022-08-03T04:59:03.410Z,700
2022-08-03T05:00:19.000Z,712
2022-08-03T05:01:35.385Z,724
2022-08-03T05:02:51.988Z,736
2022-08-03T05:04:08.178Z,752
2022-08-03T05:05:23.931Z,764
2022-08-03T05:06:40.541Z,780
2022-08-03T05:07:56.723Z,792
2022-08-03T05:09:11.924Z,804
2022-08-03T05:10:27.703Z,812
2022-08-03T05:11:44.305Z,820
2022-08-03T05:13:00.497Z,836
2022-08-03T05:14:16.677Z,848
2022-08-03T05:15:32.864Z,860
2022-08-03T05:16:48.640Z,872
2022-08-03T05:18:04.832Z,884
2022-08-03T05:19:21.442Z,896
2022-08-03T05:20:37.189Z,908
2022-08-03T05:21:53.814Z,924
2022-08-03T05:23:09.582Z,940
2022-08-03T05:24:26.187Z,956
2022-08-03T05:25:40.967Z,976
2022-08-03T05:26:57.580Z,992
2022-08-03T05:28:13.763Z,1004
2022-08-03T05:29:29.000Z,1020
2022-08-03T05:30:45.718Z,1032
2022-08-03T05:32:01.902Z,1040
2022-08-03T05:33:18.504Z,1048
2022-08-03T05:34:34.689Z,1052
2022-08-03T05:35:50.880Z,1060
2022-08-03T05:37:07.076Z,1068
2022-08-03T05:38:23.268Z,1080
2022-08-03T05:39:39.446Z,1088
2022-08-03T05:40:55.199Z,1096
2022-08-03T05:42:10.841Z,1100
2022-08-03T05:43:26.604Z,1108
2022-08-03T05:44:43.212Z,1116
2022-08-03T05:45:59.405Z,1124
2022-08-03T05:47:15.583Z,1128
2022-08-03T05:48:31.355Z,1136
2022-08-03T05:49:47.965Z,1136
2022-08-03T05:51:03.993Z,1140
2022-08-03T05:52:20.343Z,1144
2022-08-03T05:53:36.540Z,1148
2022-08-03T05:54:52.724Z,1148
2022-08-03T05:56:08.752Z,1152
2022-08-03T05:57:25.101Z,1156
2022-08-03T05:58:40.131Z,1160
2022-08-03T05:59:56.485Z,1148
2022-08-03T06:01:12.683Z,1168
2022-08-03T06:02:28.873Z,1180
2022-08-03T06:03:44.888Z,1180
2022-08-03T06:05:01.248Z,1188
2022-08-03T06:06:17.269Z,1196
2022-08-03T06:07:33.472Z,1208
2022-08-03T06:08:49.815Z,1216
2022-08-03T06:10:06.002Z,1224
2022-08-03T06:11:22.034Z,1228
2022-08-03T06:12:38.369Z,1232
2022-08-03T06:13:54.571Z,1236
2022-08-03T06:15:09.781Z,1236
2022-08-03T06:16:25.966Z,1236
2022-08-03T06:17:41.993Z,1236
2022-08-03T06:18:58.175Z,1240
2022-08-03T06:20:14.366Z,1244
2022-08-03T06:21:30.556Z,1248
2022-08-03T06:22:46.906Z,1256
2022-08-03T06:24:03.105Z,1256
2022-08-03T06:25:19.287Z,1252
2022-08-03T06:26:35.466Z,1248
2022-08-03T06:27:51.654Z,1248
2022-08-03T06:29:07.685Z,1244
2022-08-03T06:30:24.035Z,1236
2022-08-03T06:31:39.237Z,1244
2022-08-03T06:32:55.259Z,1248
2022-08-03T06:34:11.451Z,1248
2022-08-03T06:35:27.650Z,1248
2022-08-03T06:36:43.827Z,1252
2022-08-03T06:38:00.183Z,1248
2022-08-03T06:39:16.387Z,1248
2022-08-03T06:40:32.561Z,1248
2022-08-03T06:41:48.763Z,1244
2022-08-03T06:43:04.950Z,1248
2022-08-03T06:44:21.129Z,1244
2022-08-03T06:45:37.162Z,1240
2022-08-03T06:46:53.520Z,1240
2022-08-03T06:48:08.725Z,1240
2022-08-03T06:49:24.731Z,1240
2022-08-03T06:50:41.091Z,1244
2022-08-03T06:51:57.278Z,1244
2022-08-03T06:53:13.475Z,1240
2022-08-03T06:54:29.654Z,1236
2022-08-03T06:55:45.848Z,1232
2022-08-03T06:57:01.866Z,1232
2022-08-03T06:58:18.228Z,1232
2022-08-03T06:59:34.242Z,1228
2022-08-03T07:00:50.615Z,1232
2022-08-03T07:02:06.794Z,1228
2022-08-03T07:03:22.808Z,1232
2022-08-03T07:04:38.186Z,1232
2022-08-03T07:05:54.198Z,1228
2022-08-03T07:07:10.565Z,1228
2022-08-03T07:08:26.581Z,1232
2022-08-03T07:09:42.949Z,1228
2022-08-03T07:10:59.133Z,1228
2022-08-03T07:12:15.321Z,1228
2022-08-03T07:13:31.504Z,1228
2022-08-03T07:14:47.522Z,1228
2022-08-03T07:16:03.890Z,1220
2022-08-03T07:17:20.085Z,1220
2022-08-03T07:18:36.274Z,1212
2022-08-03T07:19:52.460Z,1220
2022-08-03T07:21:07.657Z,1220
2022-08-03T07:22:23.860Z,1220
2022-08-03T07:23:40.041Z,1220
2022-08-03T07:24:56.235Z,1220
2022-08-03T07:26:12.409Z,1220
2022-08-03T07:27:28.439Z,1224
2022-08-03T07:28:44.802Z,1224
2022-08-03T07:30:00.816Z,1224
2022-08-03T07:31:17.175Z,1228
2022-08-03T07:32:33.194Z,1232
2022-08-03T07:33:49.554Z,1236
2022-08-03T07:35:05.560Z,1236
2022-08-03T07:36:21.762Z,1240
2022-08-03T07:37:36.960Z,1232
2022-08-03T07:38:53.316Z,1228
2022-08-03T07:40:09.524Z,1224
2022-08-03T07:41:25.700Z,1220
2022-08-03T07:42:41.885Z,1212
2022-08-03T07:43:58.080Z,1212
2022-08-03T07:45:14.087Z,1212
2022-08-03T07:46:30.456Z,1208
2022-08-03T07:47:46.646Z,1208
2022-08-03T07:49:02.836Z,1208
2022-08-03T07:50:19.032Z,1208
2022-08-03T07:51:35.207Z,1204
2022-08-03T07:52:51.396Z,1204
2022-08-03T07:54:06.620Z,1204
2022-08-03T07:55:22.627Z,1204
2022-08-03T07:56:38.993Z,1204
2022-08-03T07:57:54.988Z,1204
2022-08-03T07:59:11.364Z,1208
2022-08-03T08:00:27.554Z,1212
2022-08-03T08:01:43.563Z,1212
2022-08-03T08:02:59.741Z,1212
2022-08-03T08:04:16.133Z,1212
2022-08-03T08:05:32.311Z,1208
2022-08-03T08:06:48.506Z,1216
2022-08-03T08:08:04.511Z,1212
2022-08-03T08:09:20.696Z,1212
2022-08-03T08:10:36.091Z,1212
2022-08-03T08:11:52.284Z,1216
2022-08-03T08:13:08.465Z,1220
2022-08-03T08:14:24.467Z,1216
2022-08-03T08:15:40.845Z,1224
2022-08-03T08:16:57.029Z,1224
2022-08-03T08:18:13.220Z,1228
2022-08-03T08:19:29.410Z,1232
2022-08-03T08:20:45.411Z,1236
2022-08-03T08:22:01.602Z,1228
2022-08-03T08:23:17.976Z,1240
2022-08-03T08:24:33.982Z,1264
2022-08-03T08:25:50.179Z,1276
2022-08-03T08:27:05.563Z,1276
2022-08-03T08:28:21.747Z,1308
2022-08-03T08:29:37.931Z,1320
2022-08-03T08:30:53.946Z,1332
2022-08-03T08:32:10.325Z,1344
2022-08-03T08:33:26.317Z,1352
2022-08-03T08:34:42.698Z,1356
2022-08-03T08:35:58.707Z,1352
2022-08-03T08:37:15.077Z,1340
2022-08-03T08:38:31.265Z,1316
2022-08-03T08:39:47.455Z,1292
2022-08-03T08:41:03.648Z,1264
2022-08-03T08:42:19.837Z,1248
2022-08-03T08:43:34.856Z,1252
2022-08-03T08:44:51.234Z,1248
2022-08-03T08:46:07.419Z,1248
2022-08-03T08:47:23.604Z,1256
2022-08-03T08:48:39.807Z,1256
2022-08-03T08:49:55.994Z,1260
2022-08-03T08:51:11.988Z,1264
2022-08-03T08:52:28.171Z,1260
2022-08-03T08:53:44.554Z,1268
2022-08-03T08:55:00.544Z,1268
2022-08-03T08:56:16.736Z,1264
2022-08-03T08:57:33.119Z,1260
2022-08-03T08:58:49.119Z,1260
2022-08-03T09:00:04.523Z,1264
2022-08-03T09:01:20.698Z,1264
2022-08-03T09:02:36.899Z,1268
2022-08-03T09:03:53.089Z,1268
2022-08-03T09:05:09.277Z,1268
2022-08-03T09:06:25.468Z,1276
2022-08-03T09:07:40.669Z,1300
2022-08-03T09:08:56.865Z,1284
2022-08-03T09:10:12.845Z,1280
2022-08-03T09:11:29.237Z,1292
2022-08-03T09:12:45.441Z,1284
2022-08-03T09:14:01.429Z,1296
2022-08-03T09:15:17.805Z,1300
2022-08-03T09:16:33.801Z,1292
2022-08-03T09:17:49.991Z,1316
2022-08-03T09:19:06.373Z,1328
2022-08-03T09:20:22.577Z,1344
2022-08-03T09:21:38.548Z,1368
2022-08-03T09:22:54.945Z,1384
2022-08-03T09:24:09.942Z,1408
2022-08-03T09:25:26.340Z,1424
2022-08-03T09:26:42.534Z,1424
2022-08-03T09:27:58.725Z,1432
2022-08-03T09:29:14.714Z,1432
2022-08-03T09:30:30.900Z,1448
2022-08-03T09:31:47.282Z,1436
2022-08-03T09:33:03.478Z,1428
2022-08-03T09:34:19.668Z,1416
2022-08-03T09:35:35.854Z,1392
2022-08-03T09:36:51.836Z,1400
2022-08-03T09:38:08.235Z,1432
2022-08-03T09:39:24.420Z,1436
2022-08-03T09:40:39.635Z,1436
2022-08-03T09:41:55.818Z,1436
2022-08-03T09:43:11.793Z,1432
2022-08-03T09:44:27.991Z,1444
2022-08-03T09:45:44.391Z,1428
2022-08-03T09:47:00.375Z,1428
2022-08-03T09:48:16.774Z,1440
2022-08-03T09:49:32.953Z,1456
2022-08-03T09:50:49.144Z,1480
2022-08-03T09:52:05.328Z,1488
2022-08-03T09:53:21.516Z,1500
2022-08-03T09:54:37.703Z,1512
2022-08-03T09:55:53.682Z,1528
2022-08-03T09:57:09.110Z,1564
2022-08-03T09:58:25.287Z,1592
2022-08-03T09:59:41.282Z,1588
2022-08-03T10:00:57.663Z,1608
2022-08-03T10:02:13.663Z,1616
2022-08-03T10:03:30.041Z,1636
2022-08-03T10:04:46.250Z,1636
2022-08-03T10:06:02.210Z,1632
2022-08-03T10:07:18.415Z,1564
2022-08-03T10:08:34.812Z,1648
2022-08-03T10:09:50.778Z,1628
2022-08-03T10:11:07.184Z,1804
2022-08-03T10:12:23.366Z,1848
2022-08-03T10:13:38.586Z,1944
2022-08-03T10:14:54.768Z,2024
2022-08-03T10:16:10.963Z,2096
2022-08-03T10:17:26.948Z,2156
2022-08-03T10:18:43.124Z,2244
2022-08-03T10:19:59.305Z,2248
2022-08-03T10:21:15.708Z,2240
2022-08-03T10:22:31.696Z,2208
2022-08-03T10:23:48.100Z,2196
2022-08-03T10:25:04.276Z,2252
2022-08-03T10:26:20.483Z,2372
2022-08-03T10:27:36.454Z,2452
2022-08-03T10:28:52.861Z,2484
2022-08-03T10:30:08.058Z,2448
2022-08-03T10:31:24.244Z,2488
2022-08-03T10:32:40.216Z,2580
2022-08-03T10:33:56.400Z,2692
2022-08-03T10:35:12.813Z,2804
2022-08-03T10:36:29.013Z,2884
2022-08-03T10:37:45.189Z,2940
2022-08-03T10:39:01.385Z,3040
2022-08-03T10:40:17.360Z,3180
2022-08-03T10:41:33.759Z,3312
2022-08-03T10:42:49.940Z,3392
2022-08-03T10:44:06.137Z,3416
2022-08-03T10:45:22.336Z,3436
2022-08-03T10:46:37.536Z,3380
2022-08-03T10:47:53.513Z,3232
2022-08-03T10:49:09.913Z,3264
2022-08-03T10:50:26.097Z,3404
2022-08-03T10:51:42.296Z,3384
2022-08-03T10:52:58.260Z,3396
2022-08-03T10:54:14.665Z,3320
2022-08-03T10:55:30.636Z,3324
2022-08-03T10:56:47.045Z,3424
2022-08-03T10:58:03.016Z,3492
2022-08-03T10:59:19.433Z,3584
2022-08-03T11:00:35.620Z,3712
2022-08-03T11:01:51.796Z,3800
2022-08-03T11:03:06.781Z,3868
2022-08-03T11:04:23.190Z,3964
2022-08-03T11:05:39.172Z,4080
2022-08-03T11:06:55.361Z,4100
2022-08-03T11:08:11.552Z,4028
2022-08-03T11:09:27.958Z,4232
2022-08-03T11:10:43.923Z,4304
2022-08-03T11:12:00.117Z,4324
2022-08-03T11:13:16.514Z,4300
2022-08-03T11:14:32.709Z,4420
2022-08-03T11:15:48.685Z,4424
2022-08-03T11:17:05.089Z,4572
2022-08-03T11:18:21.281Z,4732
2022-08-03T11:19:36.484Z,4824
2022-08-03T11:20:52.670Z,4740
2022-08-03T11:22:08.631Z,4964
2022-08-03T11:23:25.051Z,5144
2022-08-03T11:24:41.246Z,5504
2022-08-03T11:25:57.208Z,5772
2022-08-03T11:27:13.627Z,5944
2022-08-03T11:28:29.818Z,6044
2022-08-03T11:29:46.006Z,6196
2022-08-03T11:31:02.187Z,6340
2022-08-03T11:32:18.366Z,6460
2022-08-03T11:33:34.332Z,6772
2022-08-03T11:34:50.761Z,6840
2022-08-03T11:36:05.952Z,7232
2022-08-03T11:37:22.148Z,7544
2022-08-03T11:38:38.331Z,7748
2022-08-03T11:39:54.534Z,8200
2022-08-03T11:41:10.488Z,8892
2022-08-03T11:42:26.915Z,35904
2022-08-03T11:43:43.094Z,58304
2022-08-03T11:44:59.290Z,60544
2022-08-03T11:46:15.482Z,64544
2022-08-03T11:47:31.430Z,65440
2022-08-03T11:48:47.857Z,66976
2022-08-03T11:50:03.807Z,70656
2022-08-03T11:51:20.237Z,70848
2022-08-03T11:52:35.428Z,67008
2022-08-03T11:53:51.393Z,67072
2022-08-03T11:55:07.810Z,72448
2022-08-03T11:56:24.011Z,74880
2022-08-03T11:57:40.191Z,74016
2022-08-03T11:58:56.379Z,73376
2022-08-03T12:00:12.577Z,74240
2022-08-03T12:01:28.534Z,74272
2022-08-03T12:02:44.725Z,71872
2022-08-03T12:04:01.139Z,71424
2022-08-03T12:05:17.338Z,73024
2022-08-03T12:06:33.516Z,73536
2022-08-03T12:07:49.711Z,68448
2022-08-03T12:09:04.681Z,73792
2022-08-03T12:10:20.863Z,74240
2022-08-03T12:11:37.069Z,72096
2022-08-03T12:12:53.254Z,65920
2022-08-03T12:14:09.514Z,67200
2022-08-03T12:15:25.632Z,73056
2022-08-03T12:16:41.812Z,70176
2022-08-03T12:17:58.071Z,68768
2022-08-03T12:19:14.270Z,76256
2022-08-03T12:20:30.448Z,95040
2022-08-03T12:21:46.640Z,95360
2022-08-03T12:23:02.835Z,91648
2022-08-03T12:24:18.951Z,86976
2022-08-03T12:25:34.153Z,89184
2022-08-03T12:26:50.431Z,87840
2022-08-03T12:28:06.545Z,83744
2022-08-03T12:29:22.727Z,76960
2022-08-03T12:30:38.986Z,63392
2022-08-03T12:31:55.106Z,70336
2022-08-03T12:33:11.359Z,70240
2022-08-03T12:34:27.563Z,67680
2022-08-03T12:35:43.664Z,66816
2022-08-03T12:36:59.937Z,62912
2022-08-03T12:38:16.125Z,63392
2022-08-03T12:39:32.248Z,63168
2022-08-03T12:40:48.426Z,69120
2022-08-03T12:42:03.630Z,66240
2022-08-03T12:43:19.907Z,63168
2022-08-03T12:44:36.090Z,67808
2022-08-03T12:45:52.273Z,71232
2022-08-03T12:47:08.389Z,75072
2022-08-03T12:48:24.668Z,75712
2022-08-03T12:49:40.774Z,62080
2022-08-03T12:50:57.037Z,52384
2022-08-03T12:52:13.227Z,69280
2022-08-03T12:53:29.334Z,73376
2022-08-03T12:54:45.535Z,84928
2022-08-03T12:56:01.796Z,83424
2022-08-03T12:57:17.902Z,73312
2022-08-03T12:58:33.199Z,74528
2022-08-03T12:59:49.309Z,62752
2022-08-03T13:01:05.571Z,67904
2022-08-03T13:02:21.673Z,62688
2022-08-03T13:03:37.867Z,68928
2022-08-03T13:04:54.070Z,70176
2022-08-03T13:06:10.253Z,79680
2022-08-03T13:07:26.529Z,81088
2022-08-03T13:08:42.705Z,81632
2022-08-03T13:09:58.905Z,85152
2022-08-03T13:11:15.080Z,86016
2022-08-03T13:12:31.205Z,85920
2022-08-03T13:13:47.461Z,83072
2022-08-03T13:15:02.676Z,82176
2022-08-03T13:16:18.862Z,81408
2022-08-03T13:17:34.972Z,79168
2022-08-03T13:18:51.246Z,81440
2022-08-03T13:20:07.352Z,84416
2022-08-03T13:21:23.634Z,86368
2022-08-03T13:22:38.833Z,86944
2022-08-03T13:23:55.027Z,87072
2022-08-03T13:25:11.121Z,80896
2022-08-03T13:26:27.412Z,81152
2022-08-03T13:27:43.591Z,78560
2022-08-03T13:28:59.789Z,67456
2022-08-03T13:30:15.889Z,44736
2022-08-03T13:31:32.163Z,52032
2022-08-03T13:32:48.276Z,77696
2022-08-03T13:34:04.452Z,82112
2022-08-03T13:35:20.637Z,86944
2022-08-03T13:36:36.921Z,91392
2022-08-03T13:37:53.115Z,91168
2022-08-03T13:39:08.325Z,81792
2022-08-03T13:40:24.412Z,76832
2022-08-03T13:41:40.689Z,75936
2022-08-03T13:42:56.805Z,74560
2022-08-03T13:44:12.982Z,74560
2022-08-03T13:45:29.261Z,80832
2022-08-03T13:46:45.455Z,78624
2022-08-03T13:48:01.549Z,76672
2022-08-03T13:49:17.834Z,77856
2022-08-03T13:50:33.930Z,79680
2022-08-03T13:51:50.218Z,83328
2022-08-03T13:53:06.405Z,82304
2022-08-03T13:54:22.495Z,81120
2022-08-03T13:55:37.696Z,70080
2022-08-03T13:56:53.884Z,76384
2022-08-03T13:58:10.184Z,80544
2022-08-03T13:59:26.359Z,75360
2022-08-03T14:00:42.558Z,74784
2022-08-03T14:01:58.743Z,72320
2022-08-03T14:03:14.843Z,70720
2022-08-03T14:04:31.122Z,61856
2022-08-03T14:05:47.312Z,60960
2022-08-03T14:07:03.397Z,68704
2022-08-03T14:08:19.695Z,72192
2022-08-03T14:09:35.884Z,69920
2022-08-03T14:10:52.060Z,69472
2022-08-03T14:12:07.271Z,69984
2022-08-03T14:13:23.376Z,72640
2022-08-03T14:14:39.654Z,73056
2022-08-03T14:15:55.851Z,70176
2022-08-03T14:17:12.028Z,69152
2022-08-03T14:18:28.124Z,70336
2022-08-03T14:19:44.419Z,69408
2022-08-03T14:21:00.609Z,67328
2022-08-03T14:22:16.794Z,66144
2022-08-03T14:23:32.989Z,60832
2022-08-03T14:24:49.180Z,58912
2022-08-03T14:26:05.269Z,56768
2022-08-03T14:27:21.546Z,53344
2022-08-03T14:28:36.750Z,57376
2022-08-03T14:29:52.944Z,60992
2022-08-03T14:31:09.031Z,47776
2022-08-03T14:32:25.334Z,28544
2022-08-03T14:33:41.407Z,15256
2022-08-03T14:34:57.700Z,11480
2022-08-03T14:36:13.785Z,10924
2022-08-03T14:37:30.084Z,10548
2022-08-03T14:38:46.280Z,9752
2022-08-03T14:40:02.462Z,9572
2022-08-03T14:41:18.649Z,9936
2022-08-03T14:42:34.839Z,9800
2022-08-03T14:43:51.052Z,8816
2022-08-03T14:45:06.227Z,7896
2022-08-03T14:46:22.316Z,8096
2022-08-03T14:47:38.508Z,9020
2022-08-03T14:48:54.695Z,8836
2022-08-03T14:50:10.900Z,8900
2022-08-03T14:51:27.189Z,8936
2022-08-03T14:52:43.374Z,8880
2022-08-03T14:53:59.556Z,8744
2022-08-03T14:55:15.759Z,8548
2022-08-03T14:56:31.840Z,8392
2022-08-03T14:57:48.024Z,8276
2022-08-03T14:59:04.314Z,8096
2022-08-03T15:00:20.416Z,7844
2022-08-03T15:01:35.727Z,7828
2022-08-03T15:02:51.909Z,7660
2022-08-03T15:04:07.982Z,7712
2022-08-03T15:05:24.278Z,7544
2022-08-03T15:06:40.468Z,7428
2022-08-03T15:07:56.664Z,7392
2022-08-03T15:09:12.756Z,7664
2022-08-03T15:10:29.052Z,7780
2022-08-03T15:11:45.138Z,7556
2022-08-03T15:13:01.308Z,7904
2022-08-03T15:14:17.613Z,7904
2022-08-03T15:15:33.801Z,7732
2022-08-03T15:16:49.987Z,7808
2022-08-03T15:18:05.204Z,7716
2022-08-03T15:19:21.273Z,7752
2022-08-03T15:20:37.581Z,7752
2022-08-03T15:21:53.769Z,7116
2022-08-03T15:23:09.958Z,7732
2022-08-03T15:24:26.140Z,7980
2022-08-03T15:25:42.320Z,7952
2022-08-03T15:26:58.401Z,7916
2022-08-03T15:28:14.712Z,7820
2022-08-03T15:29:30.893Z,7656
2022-08-03T15:30:47.079Z,7620
2022-08-03T15:32:03.257Z,7572
2022-08-03T15:33:19.347Z,7452
2022-08-03T15:34:34.550Z,7156
2022-08-03T15:35:50.839Z,6936
2022-08-03T15:37:07.031Z,6760
2022-08-03T15:38:23.215Z,6720
2022-08-03T15:39:39.405Z,6784
2022-08-03T15:40:55.601Z,6252
2022-08-03T15:42:11.779Z,6564
2022-08-03T15:43:27.968Z,5632
2022-08-03T15:44:44.153Z,6144
2022-08-03T15:46:00.350Z,6040
2022-08-03T15:47:16.432Z,5712
2022-08-03T15:48:32.725Z,5080
2022-08-03T15:49:48.790Z,4320
2022-08-03T15:51:04.120Z,4620
2022-08-03T15:52:20.302Z,4288
2022-08-03T15:53:36.481Z,3640
2022-08-03T15:54:52.668Z,3016
2022-08-03T15:56:08.866Z,2884
2022-08-03T15:57:24.000Z,3236
2022-08-03T15:58:41.249Z,3344
2022-08-03T15:59:57.427Z,3624
2022-08-03T16:01:13.614Z,3600
2022-08-03T16:02:29.811Z,3548
2022-08-03T16:03:45.982Z,3612
2022-08-03T16:05:02.062Z,3728
2022-08-03T16:06:18.359Z,3700
2022-08-03T16:07:33.571Z,3484
2022-08-03T16:08:49.766Z,3156
2022-08-03T16:10:05.947Z,2820
2022-08-03T16:11:22.129Z,2648
2022-08-03T16:12:38.205Z,2720
2022-08-03T16:13:54.517Z,2876
2022-08-03T16:15:10.696Z,3080
2022-08-03T16:16:26.774Z,3140
2022-08-03T16:17:43.071Z,3012
2022-08-03T16:18:59.147Z,2956
2022-08-03T16:20:15.449Z,3020
2022-08-03T16:21:31.631Z,3060
2022-08-03T16:22:47.833Z,3064
2022-08-03T16:24:03.031Z,3144
2022-08-03T16:25:19.213Z,3252
2022-08-03T16:26:35.394Z,3316
2022-08-03T16:27:51.593Z,3300
2022-08-03T16:29:07.784Z,3196
2022-08-03T16:30:23.965Z,3028
2022-08-03T16:31:40.155Z,2812
2022-08-03T16:32:56.346Z,2608
2022-08-03T16:34:12.530Z,2420
2022-08-03T16:35:28.584Z,2248
2022-08-03T16:36:44.898Z,2104
2022-08-03T16:38:01.096Z,1992
2022-08-03T16:39:17.154Z,1940
2022-08-03T16:40:32.486Z,1880
2022-08-03T16:41:48.542Z,1836
2022-08-03T16:43:04.738Z,1856
2022-08-03T16:44:21.039Z,1840
2022-08-03T16:45:37.105Z,1848
2022-08-03T16:46:53.289Z,1816
2022-08-03T16:48:09.605Z,1720
2022-08-03T16:49:25.661Z,1652
2022-08-03T16:50:41.977Z,1636
2022-08-03T16:51:58.176Z,1640
2022-08-03T16:53:14.359Z,1644
2022-08-03T16:54:30.555Z,1640
2022-08-03T16:55:46.737Z,1640
2022-08-03T16:57:01.929Z,1644
2022-08-03T16:58:18.002Z,1644
2022-08-03T16:59:34.310Z,1648
2022-08-03T17:00:50.502Z,1648
2022-08-03T17:02:06.689Z,1652
2022-08-03T17:03:22.871Z,1668
2022-08-03T17:04:39.058Z,1684
2022-08-03T17:05:55.242Z,1672
2022-08-03T17:07:11.313Z,1660
2022-08-03T17:08:27.619Z,1644
2022-08-03T17:09:43.822Z,1624
2022-08-03T17:10:59.870Z,1604
2022-08-03T17:12:16.198Z,1560